createdAt,value
2018-06-04T00:00:50.433Z,981.763
2018-06-04T00:02:50.592Z,981.744
2018-06-04T00:04:50.086Z,981.727
2018-06-04T00:06:50.317Z,981.699
2018-06-04T00:08:50.490Z,981.659
2018-06-04T00:10:49.671Z,981.640
2018-06-04T00:12:49.782Z,981.589
2018-06-04T00:14:49.956Z,981.591
2018-06-04T00:16:50.227Z,981.593
2018-06-04T00:18:49.643Z,981.569
2018-06-04T00:20:49.805Z,981.558
2018-06-04T00:22:50.003Z,981.538
2018-06-04T00:24:50.171Z,981.535
2018-06-04T00:26:50.399Z,981.544
2018-06-04T00:28:50.569Z,981.560
2018-06-04T00:30:49.701Z,981.547
2018-06-04T00:32:49.812Z,981.510
2018-06-04T00:34:50.191Z,981.486
2018-06-04T00:36:50.401Z,981.482
2018-06-04T00:38:49.740Z,981.495
2018-06-04T00:40:49.910Z,981.496
2018-06-04T00:42:50.088Z,981.502
2018-06-04T00:44:50.224Z,981.503
2018-06-04T00:46:50.460Z,981.462
2018-06-04T00:48:50.594Z,981.439
2018-06-04T00:50:49.823Z,981.416
2018-06-04T00:52:50.056Z,981.402
2018-06-04T00:54:50.189Z,981.372
2018-06-04T00:56:50.398Z,981.378
2018-06-04T00:58:50.605Z,981.402
2018-06-04T01:00:49.773Z,981.400
2018-06-04T01:02:49.953Z,981.385
2018-06-04T01:04:50.380Z,981.360
2018-06-04T01:06:50.581Z,981.332
2018-06-04T01:08:49.716Z,981.330
2018-06-04T01:10:49.879Z,981.311
2018-06-04T01:12:50.106Z,981.291
2018-06-04T01:14:50.270Z,981.277
2018-06-04T01:16:50.432Z,981.214
2018-06-04T01:18:50.554Z,981.179
2018-06-04T01:20:49.687Z,981.170
2018-06-04T01:22:49.810Z,981.151
2018-06-04T01:24:49.951Z,981.142
2018-06-04T01:26:50.173Z,981.140
2018-06-04T01:28:50.305Z,981.143
2018-06-04T01:30:50.485Z,981.152
2018-06-04T01:32:49.704Z,981.151
2018-06-04T01:34:50.018Z,981.151
2018-06-04T01:36:50.244Z,981.153
2018-06-04T01:38:50.453Z,981.137
2018-06-04T01:40:49.727Z,981.145
2018-06-04T01:42:49.987Z,981.134
2018-06-04T01:44:50.172Z,981.124
2018-06-04T01:46:50.469Z,981.106
2018-06-04T01:48:49.630Z,981.090
2018-06-04T01:50:49.778Z,981.080
2018-06-04T01:52:49.911Z,981.067
2018-06-04T01:54:50.063Z,981.059
2018-06-04T01:56:50.319Z,981.021
2018-06-04T01:58:50.483Z,981.018
2018-06-04T02:00:49.678Z,980.995
2018-06-04T02:02:49.820Z,980.984
2018-06-04T02:04:50.247Z,980.984
2018-06-04T02:06:50.474Z,980.965
2018-06-04T02:08:50.414Z,980.968
2018-06-04T02:10:50.535Z,980.958
2018-06-04T02:12:49.663Z,980.945
2018-06-04T02:14:49.935Z,980.929
2018-06-04T02:16:50.274Z,980.912
2018-06-04T02:18:50.416Z,980.868
2018-06-04T02:20:50.558Z,980.858
2018-06-04T02:22:49.688Z,980.832
2018-06-04T02:24:49.799Z,980.817
2018-06-04T02:26:50.072Z,980.779
2018-06-04T02:28:50.293Z,980.754
2018-06-04T02:30:50.619Z,980.754
2018-06-04T02:32:49.790Z,980.740
2018-06-04T02:34:50.091Z,980.731
2018-06-04T02:36:50.313Z,980.727
2018-06-04T02:38:50.477Z,980.716
2018-06-04T02:40:49.659Z,980.727
2018-06-04T02:42:49.942Z,980.754
2018-06-04T02:44:50.158Z,980.761
2018-06-04T02:46:50.463Z,980.761
2018-06-04T02:48:49.661Z,980.758
2018-06-04T02:50:49.836Z,980.775
2018-06-04T02:52:49.988Z,980.749
2018-06-04T02:54:50.159Z,980.737
2018-06-04T02:56:50.420Z,980.719
2018-06-04T02:58:50.593Z,980.712
2018-06-04T03:00:49.773Z,980.703
2018-06-04T03:02:49.901Z,980.712
2018-06-04T03:04:50.268Z,980.712
2018-06-04T03:06:50.535Z,980.719
2018-06-04T03:08:49.774Z,980.726
2018-06-04T03:10:49.928Z,980.726
2018-06-04T03:12:50.083Z,980.732
2018-06-04T03:14:50.306Z,980.741
2018-06-04T03:16:50.552Z,980.744
2018-06-04T03:18:49.759Z,980.752
2018-06-04T03:20:49.943Z,980.756
2018-06-04T03:22:50.091Z,980.763
2018-06-04T03:24:50.240Z,980.762
2018-06-04T03:26:50.472Z,980.775
2018-06-04T03:28:49.668Z,980.776
2018-06-04T03:30:49.867Z,980.782
2018-06-04T03:32:50.027Z,980.777
2018-06-04T03:34:50.754Z,980.759
2018-06-04T03:36:50.312Z,980.758
2018-06-04T03:38:50.456Z,980.740
2018-06-04T03:40:50.471Z,980.718
2018-06-04T03:42:50.577Z,980.720
2018-06-04T03:44:49.749Z,980.720
2018-06-04T03:46:49.965Z,980.725
2018-06-04T03:48:50.162Z,980.710
2018-06-04T03:50:50.327Z,980.714
2018-06-04T03:52:50.511Z,980.723
2018-06-04T03:54:49.670Z,980.735
2018-06-04T03:56:49.887Z,980.763
2018-06-04T03:58:49.998Z,980.781
2018-06-04T04:00:50.171Z,980.751
2018-06-04T04:02:50.471Z,980.741
2018-06-04T04:04:49.999Z,980.753
2018-06-04T04:06:50.241Z,980.790
2018-06-04T04:08:50.441Z,980.800
2018-06-04T04:10:50.597Z,980.812
2018-06-04T04:12:49.825Z,980.828
2018-06-04T04:14:49.993Z,980.830
2018-06-04T04:16:50.195Z,980.845
2018-06-04T04:18:50.375Z,980.845
2018-06-04T04:20:50.587Z,980.813
2018-06-04T04:22:49.817Z,980.803
2018-06-04T04:24:49.950Z,980.796
2018-06-04T04:26:50.612Z,980.806
2018-06-04T04:28:49.811Z,980.805
2018-06-04T04:30:49.931Z,980.812
2018-06-04T04:32:50.138Z,980.788
2018-06-04T04:34:49.672Z,980.776
2018-06-04T04:36:49.885Z,980.780
2018-06-04T04:38:50.046Z,980.764
2018-06-04T04:40:50.271Z,980.763
2018-06-04T04:42:50.465Z,980.764
2018-06-04T04:44:50.546Z,980.749
2018-06-04T04:46:49.694Z,980.745
2018-06-04T04:48:49.846Z,980.739
2018-06-04T04:50:50.003Z,980.740
2018-06-04T04:52:50.203Z,980.751
2018-06-04T04:54:50.351Z,980.762
2018-06-04T04:56:49.766Z,980.778
2018-06-04T04:58:49.958Z,980.778
2018-06-04T05:00:50.095Z,980.803
2018-06-04T05:02:50.189Z,980.772
2018-06-04T05:04:50.500Z,980.751
2018-06-04T05:06:49.695Z,980.742
2018-06-04T05:08:49.893Z,980.733
2018-06-04T05:10:50.019Z,980.748
2018-06-04T05:12:50.203Z,980.773
2018-06-04T05:14:50.306Z,980.777
2018-06-04T05:16:50.569Z,980.778
2018-06-04T05:18:49.957Z,980.752
2018-06-04T05:20:50.336Z,980.765
2018-06-04T05:22:49.628Z,980.748
2018-06-04T05:24:49.808Z,980.754
2018-06-04T05:26:50.015Z,980.750
2018-06-04T05:28:50.208Z,980.733
2018-06-04T05:30:50.368Z,980.734
2018-06-04T05:32:50.609Z,980.754
2018-06-04T05:34:49.973Z,980.747
2018-06-04T05:36:50.613Z,980.718
2018-06-04T05:38:49.754Z,980.665
2018-06-04T05:40:49.876Z,980.655
2018-06-04T05:42:50.005Z,980.632
2018-06-04T05:44:50.147Z,980.606
2018-06-04T05:46:50.408Z,980.620
2018-06-04T05:48:50.598Z,980.635
2018-06-04T05:50:49.709Z,980.623
2018-06-04T05:52:49.835Z,980.619
2018-06-04T05:54:49.954Z,980.612
2018-06-04T05:56:50.220Z,980.614
2018-06-04T05:58:50.302Z,980.609
2018-06-04T06:00:50.441Z,980.605
2018-06-04T06:02:50.539Z,980.584
2018-06-04T06:04:49.965Z,980.588
2018-06-04T06:06:50.209Z,980.609
2018-06-04T06:08:50.367Z,980.619
2018-06-04T06:10:50.494Z,980.624
2018-06-04T06:12:49.618Z,980.615
2018-06-04T06:14:49.823Z,980.612
2018-06-04T06:16:50.091Z,980.591
2018-06-04T06:18:50.474Z,980.548
2018-06-04T06:20:49.657Z,980.548
2018-06-04T06:22:49.868Z,980.517
2018-06-04T06:24:49.984Z,980.496
2018-06-04T06:26:50.207Z,980.472
2018-06-04T06:28:50.350Z,980.470
2018-06-04T06:30:50.714Z,980.455
2018-06-04T06:32:50.292Z,980.464
2018-06-04T06:34:49.670Z,980.452
2018-06-04T06:36:49.946Z,980.428
2018-06-04T06:38:50.118Z,980.398
2018-06-04T06:40:50.374Z,980.377
2018-06-04T06:42:50.537Z,980.359
2018-06-04T06:44:49.665Z,980.352
2018-06-04T06:46:49.919Z,980.353
2018-06-04T06:48:50.073Z,980.356
2018-06-04T06:50:50.205Z,980.358
2018-06-04T06:52:50.405Z,980.366
2018-06-04T06:54:50.552Z,980.365
2018-06-04T06:56:49.809Z,980.337
2018-06-04T06:58:50.019Z,980.305
2018-06-04T07:00:50.210Z,980.298
2018-06-04T07:02:50.368Z,980.298
2018-06-04T07:04:49.836Z,980.291
2018-06-04T07:06:50.153Z,980.290
2018-06-04T07:08:50.291Z,980.289
2018-06-04T07:10:50.446Z,980.278
2018-06-04T07:12:49.715Z,980.207
2018-06-04T07:14:49.896Z,980.186
2018-06-04T07:16:50.127Z,980.184
2018-06-04T07:18:50.354Z,980.167
2018-06-04T07:20:50.512Z,980.161
2018-06-04T07:22:49.881Z,980.147
2018-06-04T07:24:50.045Z,980.133
2018-06-04T07:26:50.619Z,980.108
2018-06-04T07:28:50.312Z,980.080
2018-06-04T07:30:50.521Z,980.075
2018-06-04T07:32:49.700Z,980.072
2018-06-04T07:34:50.266Z,980.072
2018-06-04T07:36:49.815Z,980.061
2018-06-04T07:38:49.984Z,980.058
2018-06-04T07:40:50.098Z,980.016
2018-06-04T07:42:50.232Z,980.030
2018-06-04T07:44:50.440Z,980.015
2018-06-04T07:46:49.743Z,980.005
2018-06-04T07:48:49.985Z,979.998
2018-06-04T07:50:50.153Z,979.976
2018-06-04T07:52:50.486Z,979.968
2018-06-04T07:54:49.656Z,979.940
2018-06-04T07:56:49.817Z,979.905
2018-06-04T07:58:49.931Z,979.912
2018-06-04T08:00:50.276Z,979.903
2018-06-04T08:02:49.702Z,979.913
2018-06-04T08:04:50.014Z,979.910
2018-06-04T08:06:50.259Z,979.903
2018-06-04T08:08:50.449Z,979.893
2018-06-04T08:10:50.607Z,979.901
2018-06-04T08:12:49.863Z,979.865
2018-06-04T08:14:49.976Z,979.821
2018-06-04T08:16:50.216Z,979.781
2018-06-04T08:18:50.361Z,979.774
2018-06-04T08:20:50.464Z,979.768
2018-06-04T08:22:50.590Z,979.768
2018-06-04T08:24:49.709Z,979.793
2018-06-04T08:26:50.066Z,979.786
2018-06-04T08:28:50.154Z,979.764
2018-06-04T08:30:50.244Z,979.756
2018-06-04T08:32:50.390Z,979.741
2018-06-04T08:34:49.765Z,979.741
2018-06-04T08:36:49.938Z,979.715
2018-06-04T08:38:50.147Z,979.734
2018-06-04T08:40:50.264Z,979.761
2018-06-04T08:42:50.467Z,979.741
2018-06-04T08:44:49.645Z,979.732
2018-06-04T08:46:49.942Z,979.688
2018-06-04T08:48:50.170Z,979.689
2018-06-04T08:50:50.364Z,979.641
2018-06-04T08:52:50.554Z,979.633
2018-06-04T08:54:49.683Z,979.654
2018-06-04T08:56:50.011Z,979.658
2018-06-04T08:58:50.165Z,979.641
2018-06-04T09:00:50.363Z,979.650
2018-06-04T09:02:50.455Z,979.653
2018-06-04T09:04:49.929Z,979.653
2018-06-04T09:06:50.169Z,979.648
2018-06-04T09:08:50.334Z,979.645
2018-06-04T09:10:50.453Z,979.628
2018-06-04T09:12:49.620Z,979.611
2018-06-04T09:14:49.766Z,979.607
2018-06-04T09:16:50.058Z,979.584
2018-06-04T09:18:50.172Z,979.573
2018-06-04T09:20:50.248Z,979.560
2018-06-04T09:22:50.335Z,979.573
2018-06-04T09:24:49.623Z,979.600
2018-06-04T09:26:49.807Z,979.597
2018-06-04T09:28:49.921Z,979.579
2018-06-04T09:30:50.048Z,979.564
2018-06-04T09:32:50.245Z,979.597
2018-06-04T09:34:49.610Z,979.605
2018-06-04T09:36:49.741Z,979.606
2018-06-04T09:38:49.840Z,979.616
2018-06-04T09:40:49.989Z,979.607
2018-06-04T09:42:50.109Z,979.604
2018-06-04T09:44:50.196Z,979.596
2018-06-04T09:46:50.548Z,979.598
2018-06-04T09:48:49.771Z,979.602
2018-06-04T09:50:49.952Z,979.594
2018-06-04T09:52:50.094Z,979.570
2018-06-04T09:54:49.769Z,979.572
2018-06-04T09:56:50.105Z,979.581
2018-06-04T09:58:50.217Z,979.580
2018-06-04T10:00:50.439Z,979.570
2018-06-04T10:02:50.560Z,979.547
2018-06-04T10:04:49.833Z,979.538
2018-06-04T10:06:50.073Z,979.517
2018-06-04T10:08:50.210Z,979.500
2018-06-04T10:10:50.380Z,979.493
2018-06-04T10:12:50.582Z,979.431
2018-06-04T10:14:49.710Z,979.386
2018-06-04T10:16:49.917Z,979.397
2018-06-04T10:18:50.101Z,979.380
2018-06-04T10:20:50.492Z,979.379
2018-06-04T10:22:50.125Z,979.346
2018-06-04T10:24:50.285Z,979.304
2018-06-04T10:26:50.462Z,979.296
2018-06-04T10:28:49.677Z,979.286
2018-06-04T10:30:49.791Z,979.287
2018-06-04T10:32:49.951Z,979.296
2018-06-04T10:34:50.286Z,979.290
2018-06-04T10:36:50.564Z,979.273
2018-06-04T10:38:49.687Z,979.266
2018-06-04T10:40:49.893Z,979.255
2018-06-04T10:42:50.118Z,979.244
2018-06-04T10:44:50.256Z,979.234
2018-06-04T10:46:50.590Z,979.235
2018-06-04T10:48:49.733Z,979.209
2018-06-04T10:50:49.894Z,979.155
2018-06-04T10:52:50.031Z,979.106
2018-06-04T10:54:50.157Z,979.065
2018-06-04T10:56:50.312Z,979.063
2018-06-04T10:58:50.423Z,979.058
2018-06-04T11:00:50.591Z,979.037
2018-06-04T11:02:49.847Z,979.026
2018-06-04T11:04:50.414Z,978.999
2018-06-04T11:06:50.033Z,978.976
2018-06-04T11:08:50.105Z,978.978
2018-06-04T11:10:50.301Z,978.956
2018-06-04T11:12:50.524Z,978.948
2018-06-04T11:14:49.709Z,978.944
2018-06-04T11:16:50.074Z,978.883
2018-06-04T11:18:50.380Z,978.868
2018-06-04T11:20:49.714Z,978.860
2018-06-04T11:22:49.884Z,978.833
2018-06-04T11:24:49.991Z,978.812
2018-06-04T11:26:50.233Z,978.794
2018-06-04T11:28:50.393Z,978.776
2018-06-04T11:30:50.529Z,978.747
2018-06-04T11:32:49.674Z,978.712
2018-06-04T11:34:49.973Z,978.695
2018-06-04T11:36:50.305Z,978.661
2018-06-04T11:38:50.475Z,978.647
2018-06-04T11:40:50.571Z,978.629
2018-06-04T11:42:49.729Z,978.644
2018-06-04T11:44:49.896Z,978.635
2018-06-04T11:46:50.151Z,978.636
2018-06-04T11:48:50.369Z,978.627
2018-06-04T11:50:50.560Z,978.616
2018-06-04T11:52:49.704Z,978.611
2018-06-04T11:54:49.841Z,978.575
2018-06-04T11:56:50.024Z,978.560
2018-06-04T11:58:50.174Z,978.552
2018-06-04T12:00:50.317Z,978.526
2018-06-04T12:02:50.418Z,978.507
2018-06-04T12:04:49.933Z,978.507
2018-06-04T12:06:50.292Z,978.502
2018-06-04T12:08:50.469Z,978.494
2018-06-04T12:10:50.586Z,978.445
2018-06-04T12:12:49.685Z,978.424
2018-06-04T12:14:49.808Z,978.382
2018-06-04T12:16:50.000Z,978.352
2018-06-04T12:18:50.126Z,978.329
2018-06-04T12:20:50.180Z,978.324
2018-06-04T12:22:50.337Z,978.312
2018-06-04T12:24:50.384Z,978.278
2018-06-04T12:26:50.480Z,978.278
2018-06-04T12:28:50.575Z,978.224
2018-06-04T12:30:49.650Z,978.181
2018-06-04T12:32:49.769Z,978.156
2018-06-04T12:34:50.124Z,978.104
2018-06-04T12:36:50.260Z,978.094
2018-06-04T12:38:50.442Z,978.053
2018-06-04T12:40:50.632Z,978.031
2018-06-04T12:42:49.787Z,978.020
2018-06-04T12:44:49.901Z,977.974
2018-06-04T12:46:50.038Z,977.967
2018-06-04T12:48:50.151Z,977.932
2018-06-04T12:50:50.267Z,977.908
2018-06-04T12:52:50.373Z,977.891
2018-06-04T12:54:50.526Z,977.891
2018-06-04T12:56:49.678Z,977.845
2018-06-04T12:58:49.762Z,977.839
2018-06-04T13:00:49.892Z,977.769
2018-06-04T13:02:50.012Z,977.745
2018-06-04T13:04:49.952Z,977.694
2018-06-04T13:06:49.766Z,977.678
2018-06-04T13:08:49.909Z,977.661
2018-06-04T13:10:49.990Z,977.625
2018-06-04T13:12:50.111Z,977.602
2018-06-04T13:14:50.235Z,977.559
2018-06-04T13:16:50.461Z,977.537
2018-06-04T13:18:50.580Z,977.542
2018-06-04T13:20:49.649Z,977.538
2018-06-04T13:22:49.771Z,977.562
2018-06-04T13:24:49.879Z,977.549
2018-06-04T13:26:50.289Z,977.530
2018-06-04T13:28:50.395Z,977.487
2018-06-04T13:30:50.459Z,977.487
2018-06-04T13:32:50.579Z,977.412
2018-06-04T13:34:49.986Z,977.361
2018-06-04T13:36:50.164Z,977.337
2018-06-04T13:38:50.282Z,977.336
2018-06-04T13:40:50.329Z,977.309
2018-06-04T13:42:50.559Z,977.273
2018-06-04T13:44:49.652Z,977.268
2018-06-04T13:46:49.812Z,977.254
2018-06-04T13:48:49.928Z,977.177
2018-06-04T13:50:50.023Z,977.169
2018-06-04T13:52:50.171Z,977.138
2018-06-04T13:54:50.233Z,977.089
2018-06-04T13:56:50.399Z,977.044
2018-06-04T13:58:50.567Z,976.984
2018-06-04T14:00:49.716Z,976.943
2018-06-04T14:02:49.877Z,976.956
2018-06-04T14:04:50.440Z,976.956
2018-06-04T14:06:49.791Z,976.911
2018-06-04T14:08:50.134Z,976.862
2018-06-04T14:10:50.466Z,976.840
2018-06-04T14:12:50.542Z,976.813
2018-06-04T14:14:49.702Z,976.798
2018-06-04T14:16:49.892Z,976.782
2018-06-04T14:18:50.195Z,976.709
2018-06-04T14:20:50.418Z,976.657
2018-06-04T14:22:50.552Z,976.601
2018-06-04T14:24:49.796Z,976.579
2018-06-04T14:26:49.980Z,976.533
2018-06-04T14:28:50.121Z,976.497
2018-06-04T14:30:50.353Z,976.499
2018-06-04T14:32:50.552Z,976.470
2018-06-04T14:34:49.806Z,976.437
2018-06-04T14:36:50.156Z,976.441
2018-06-04T14:38:50.336Z,976.446
2018-06-04T14:40:50.405Z,976.446
2018-06-04T14:42:50.440Z,976.428
2018-06-04T14:44:49.816Z,976.419
2018-06-04T14:46:50.162Z,976.427
2018-06-04T14:48:50.269Z,976.417
2018-06-04T14:50:50.373Z,976.357
2018-06-04T14:52:50.535Z,976.303
2018-06-04T14:54:49.702Z,976.301
2018-06-04T14:56:49.892Z,976.286
2018-06-04T14:58:50.085Z,976.286
2018-06-04T15:00:50.231Z,976.295
2018-06-04T15:02:50.342Z,976.268
2018-06-04T15:04:49.672Z,976.254
2018-06-04T15:06:49.957Z,976.211
2018-06-04T15:08:50.098Z,976.211
2018-06-04T15:10:50.183Z,976.183
2018-06-04T15:12:50.318Z,976.176
2018-06-04T15:14:50.466Z,976.160
2018-06-04T15:16:49.650Z,976.145
2018-06-04T15:18:49.745Z,976.145
2018-06-04T15:20:49.848Z,976.168
2018-06-04T15:22:49.985Z,976.139
2018-06-04T15:24:50.123Z,976.122
2018-06-04T15:26:50.267Z,976.107
2018-06-04T15:28:50.333Z,976.094
2018-06-04T15:30:50.411Z,976.079
2018-06-04T15:32:50.491Z,976.101
2018-06-04T15:34:49.859Z,976.078
2018-06-04T15:36:50.071Z,976.028
2018-06-04T15:38:50.195Z,975.996
2018-06-04T15:40:50.306Z,975.979
2018-06-04T15:42:50.508Z,975.964
2018-06-04T15:44:49.632Z,975.934
2018-06-04T15:46:49.889Z,975.924
2018-06-04T15:48:50.041Z,975.935
2018-06-04T15:50:50.155Z,975.907
2018-06-04T15:52:50.379Z,975.878
2018-06-04T15:54:49.621Z,975.877
2018-06-04T15:56:49.821Z,975.874
2018-06-04T15:58:49.938Z,975.889
2018-06-04T16:00:50.127Z,975.880
2018-06-04T16:02:50.362Z,975.868
2018-06-04T16:04:49.787Z,975.866
2018-06-04T16:06:50.013Z,975.855
2018-06-04T16:08:50.208Z,975.835
2018-06-04T16:10:50.362Z,975.828
2018-06-04T16:12:50.487Z,975.814
2018-06-04T16:14:49.763Z,975.790
2018-06-04T16:16:50.270Z,975.769
2018-06-04T16:18:50.422Z,975.736
2018-06-04T16:20:49.655Z,975.714
2018-06-04T16:22:49.917Z,975.702
2018-06-04T16:24:50.066Z,975.705
2018-06-04T16:26:50.359Z,975.690
2018-06-04T16:28:50.480Z,975.670
2018-06-04T16:30:50.577Z,975.642
2018-06-04T16:32:49.745Z,975.631
2018-06-04T16:34:50.203Z,975.598
2018-06-04T16:36:50.338Z,975.575
2018-06-04T16:38:50.510Z,975.581
2018-06-04T16:40:49.637Z,975.567
2018-06-04T16:42:49.763Z,975.552
2018-06-04T16:44:50.070Z,975.549
2018-06-04T16:46:50.443Z,975.540
2018-06-04T16:48:50.615Z,975.513
2018-06-04T16:50:49.817Z,975.497
2018-06-04T16:52:49.993Z,975.489
2018-06-04T16:54:50.159Z,975.498
2018-06-04T16:56:50.429Z,975.541
2018-06-04T16:58:50.578Z,975.531
2018-06-04T17:00:49.677Z,975.529
2018-06-04T17:02:49.794Z,975.533
2018-06-04T17:04:50.137Z,975.537
2018-06-04T17:06:50.376Z,975.521
2018-06-04T17:08:50.489Z,975.549
2018-06-04T17:10:49.650Z,975.583
2018-06-04T17:12:49.783Z,975.575
2018-06-04T17:14:49.926Z,975.591
2018-06-04T17:16:50.151Z,975.584
2018-06-04T17:18:50.240Z,975.574
2018-06-04T17:20:50.348Z,975.564
2018-06-04T17:22:50.482Z,975.563
2018-06-04T17:24:50.568Z,975.573
2018-06-04T17:26:49.838Z,975.598
2018-06-04T17:28:49.938Z,975.611
2018-06-04T17:30:50.093Z,975.619
2018-06-04T17:32:50.267Z,975.642
2018-06-04T17:34:50.613Z,975.670
2018-06-04T17:36:49.847Z,975.692
2018-06-04T17:38:49.909Z,975.707
2018-06-04T17:40:50.097Z,975.724
2018-06-04T17:42:50.205Z,975.731
2018-06-04T17:44:50.307Z,975.710
2018-06-04T17:46:50.534Z,975.695
2018-06-04T17:48:49.677Z,975.684
2018-06-04T17:50:49.838Z,975.686
2018-06-04T17:52:49.982Z,975.691
2018-06-04T17:54:50.199Z,975.697
2018-06-04T17:56:50.414Z,975.705
2018-06-04T17:58:50.545Z,975.741
2018-06-04T18:00:49.777Z,975.753
2018-06-04T18:02:49.892Z,975.750
2018-06-04T18:04:50.302Z,975.741
2018-06-04T18:06:50.497Z,975.748
2018-06-04T18:08:50.605Z,975.755
2018-06-04T18:10:49.716Z,975.751
2018-06-04T18:12:49.910Z,975.743
2018-06-04T18:14:50.028Z,975.735
2018-06-04T18:16:50.160Z,975.748
2018-06-04T18:18:50.288Z,975.782
2018-06-04T18:20:50.394Z,975.782
2018-06-04T18:22:50.513Z,975.812
2018-06-04T18:24:49.775Z,975.812
2018-06-04T18:26:50.017Z,975.870
2018-06-04T18:28:50.178Z,975.889
2018-06-04T18:30:50.340Z,975.885
2018-06-04T18:32:50.438Z,975.906
2018-06-04T18:34:49.888Z,975.929
2018-06-04T18:36:50.082Z,975.950
2018-06-04T18:38:50.212Z,975.961
2018-06-04T18:40:50.354Z,975.950
2018-06-04T18:42:50.469Z,975.954
2018-06-04T18:44:50.612Z,975.967
2018-06-04T18:46:49.823Z,975.988
2018-06-04T18:48:50.009Z,976.010
2018-06-04T18:50:50.155Z,976.042
2018-06-04T18:52:50.413Z,976.077
2018-06-04T18:54:50.553Z,976.130
2018-06-04T18:56:49.787Z,976.136
2018-06-04T18:58:49.881Z,976.149
2018-06-04T19:00:49.988Z,976.158
2018-06-04T19:02:50.100Z,976.177
2018-06-04T19:04:50.432Z,976.188
2018-06-04T19:06:49.660Z,976.251
2018-06-04T19:08:50.056Z,976.287
2018-06-04T19:10:49.642Z,976.326
2018-06-04T19:12:49.739Z,976.339
2018-06-04T19:14:49.918Z,976.359
2018-06-04T19:16:50.279Z,976.370
2018-06-04T19:18:50.432Z,976.363
2018-06-04T19:20:50.598Z,976.374
2018-06-04T19:22:49.940Z,976.378
2018-06-04T19:24:50.121Z,976.384
2018-06-04T19:26:50.453Z,976.380
2018-06-04T19:28:49.778Z,976.371
2018-06-04T19:30:49.894Z,976.384
2018-06-04T19:32:50.041Z,976.420
2018-06-04T19:34:50.419Z,976.444
2018-06-04T19:36:50.596Z,976.495
2018-06-04T19:38:49.714Z,976.535
2018-06-04T19:40:49.793Z,976.548
2018-06-04T19:42:49.946Z,976.590
2018-06-04T19:44:50.080Z,976.610
2018-06-04T19:46:50.322Z,976.681
2018-06-04T19:48:50.477Z,976.688
2018-06-04T19:50:50.617Z,976.723
2018-06-04T19:52:49.720Z,976.741
2018-06-04T19:54:49.950Z,976.778
2018-06-04T19:56:50.403Z,976.798
2018-06-04T19:58:49.634Z,976.821
2018-06-04T20:00:49.730Z,976.837
2018-06-04T20:02:49.842Z,976.866
2018-06-04T20:04:50.270Z,976.901
2018-06-04T20:06:49.776Z,976.937
2018-06-04T20:08:49.893Z,976.937
2018-06-04T20:10:49.981Z,977.041
2018-06-04T20:12:50.123Z,977.119
2018-06-04T20:14:50.272Z,977.173
2018-06-04T20:16:50.434Z,977.213
2018-06-04T20:18:50.608Z,977.222
2018-06-04T20:20:49.723Z,977.267
2018-06-04T20:22:49.893Z,977.253
2018-06-04T20:24:50.089Z,977.270
2018-06-04T20:26:50.395Z,977.290
2018-06-04T20:28:50.547Z,977.310
2018-06-04T20:30:49.683Z,977.321
2018-06-04T20:32:49.763Z,977.335
2018-06-04T20:34:50.110Z,977.338
2018-06-04T20:36:50.322Z,977.361
2018-06-04T20:38:50.504Z,977.369
2018-06-04T20:40:49.621Z,977.416
2018-06-04T20:42:49.884Z,977.455
2018-06-04T20:44:49.973Z,977.487
2018-06-04T20:46:50.204Z,977.490
2018-06-04T20:48:50.576Z,977.466
2018-06-04T20:50:49.721Z,977.481
2018-06-04T20:52:49.916Z,977.483
2018-06-04T20:54:50.006Z,977.483
2018-06-04T20:56:50.318Z,977.489
2018-06-04T20:58:50.528Z,977.494
2018-06-04T21:00:49.718Z,977.519
2018-06-04T21:02:49.907Z,977.531
2018-06-04T21:04:50.274Z,977.556
2018-06-04T21:06:50.478Z,977.568
2018-06-04T21:08:49.616Z,977.571
2018-06-04T21:10:49.767Z,977.592
2018-06-04T21:12:49.923Z,977.595
2018-06-04T21:14:50.023Z,977.595
2018-06-04T21:16:50.179Z,977.610
2018-06-04T21:18:50.307Z,977.603
2018-06-04T21:20:50.431Z,977.615
2018-06-04T21:22:50.609Z,977.631
2018-06-04T21:24:49.726Z,977.651
2018-06-04T21:26:49.947Z,977.661
2018-06-04T21:28:50.080Z,977.666
2018-06-04T21:30:50.241Z,977.671
2018-06-04T21:32:50.371Z,977.680
2018-06-04T21:34:49.724Z,977.691
2018-06-04T21:36:49.959Z,977.685
2018-06-04T21:38:50.084Z,977.693
2018-06-04T21:40:50.215Z,977.692
2018-06-04T21:42:50.357Z,977.711
2018-06-04T21:44:50.512Z,977.726
2018-06-04T21:46:49.656Z,977.727
2018-06-04T21:48:49.838Z,977.747
2018-06-04T21:50:49.957Z,977.775
2018-06-04T21:52:50.097Z,977.803
2018-06-04T21:54:50.171Z,977.817
2018-06-04T21:56:50.537Z,977.843
2018-06-04T21:58:49.624Z,977.856
2018-06-04T22:00:49.838Z,977.862
2018-06-04T22:02:50.050Z,977.874
2018-06-04T22:04:50.426Z,977.892
2018-06-04T22:06:49.709Z,977.899
2018-06-04T22:08:49.893Z,977.924
2018-06-04T22:10:50.039Z,977.943
2018-06-04T22:12:50.171Z,977.967
2018-06-04T22:14:50.295Z,977.994
2018-06-04T22:16:49.894Z,978.012
2018-06-04T22:18:49.652Z,978.026
2018-06-04T22:20:49.854Z,978.052
2018-06-04T22:22:50.102Z,978.056
2018-06-04T22:24:50.269Z,978.091
2018-06-04T22:26:50.545Z,978.092
2018-06-04T22:28:49.756Z,978.091
2018-06-04T22:30:49.952Z,978.052
2018-06-04T22:32:50.137Z,978.036
2018-06-04T22:34:49.650Z,978.019
2018-06-04T22:36:49.952Z,978.010
2018-06-04T22:38:50.102Z,977.995
2018-06-04T22:40:50.255Z,977.985
2018-06-04T22:42:50.391Z,977.980
2018-06-04T22:44:50.468Z,977.978
2018-06-04T22:46:49.788Z,977.982
2018-06-04T22:48:49.857Z,977.981
2018-06-04T22:50:50.008Z,977.959
2018-06-04T22:52:50.062Z,977.962
2018-06-04T22:54:50.481Z,977.987
2018-06-04T22:56:49.904Z,977.987
2018-06-04T22:58:50.031Z,977.995
2018-06-04T23:00:50.170Z,978.010
2018-06-04T23:02:50.348Z,978.016
2018-06-04T23:04:49.671Z,977.998
2018-06-04T23:06:49.907Z,977.994
2018-06-04T23:08:50.173Z,978.010
2018-06-04T23:10:50.543Z,977.996
2018-06-04T23:12:49.651Z,977.988
2018-06-04T23:14:49.840Z,977.958
2018-06-04T23:16:50.086Z,977.926
2018-06-04T23:18:50.250Z,977.903
2018-06-04T23:20:50.380Z,977.896
2018-06-04T23:22:49.897Z,977.885
2018-06-04T23:24:50.237Z,977.868
2018-06-04T23:26:50.451Z,977.864
2018-06-04T23:28:50.612Z,977.853
2018-06-04T23:30:49.668Z,977.849
2018-06-04T23:32:49.803Z,977.832
2018-06-04T23:34:50.206Z,977.823
2018-06-04T23:36:50.434Z,977.792
2018-06-04T23:38:49.700Z,977.764
2018-06-04T23:40:49.781Z,977.764
2018-06-04T23:42:49.934Z,977.739
2018-06-04T23:44:50.112Z,977.719
2018-06-04T23:46:50.402Z,977.708
2018-06-04T23:48:50.495Z,977.701
2018-06-04T23:50:49.649Z,977.659
2018-06-04T23:52:49.741Z,977.635
2018-06-04T23:54:49.875Z,977.635
2018-06-04T23:56:50.138Z,977.653
2018-06-04T23:58:50.239Z,977.689
